sensor_id;sensor_type;location;lat;lon;timestamp;pressure;altitude;pressure_sealevel;temperature;humidity
35676;BME280;21790;42.668;23.298;2022-08-14T00:00:07;94167.22;;;24.32;56.31
35676;BME280;21790;42.668;23.298;2022-08-14T00:02:33;94171.72;;;24.20;56.50
35676;BME280;21790;42.668;23.298;2022-08-14T00:04:59;94174.72;;;24.22;56.54
35676;BME280;21790;42.668;23.298;2022-08-14T00:07:25;94171.72;;;24.20;56.35
35676;BME280;21790;42.668;23.298;2022-08-14T00:09:50;94158.16;;;24.26;56.16
35676;BME280;21790;42.668;23.298;2022-08-14T00:12:17;94160.25;;;24.26;56.29
35676;BME280;21790;42.668;23.298;2022-08-14T00:14:43;94154.75;;;24.28;55.96
35676;BME280;21790;42.668;23.298;2022-08-14T00:17:08;94155.72;;;24.30;56.19
35676;BME280;21790;42.668;23.298;2022-08-14T00:19:34;94154.75;;;24.28;56.37
35676;BME280;21790;42.668;23.298;2022-08-14T00:21:59;94138.56;;;24.28;56.00
35676;BME280;21790;42.668;23.298;2022-08-14T00:24:26;94150.25;;;24.25;56.48
35676;BME280;21790;42.668;23.298;2022-08-14T00:26:51;94147.25;;;24.30;56.33
35676;BME280;21790;42.668;23.298;2022-08-14T00:29:18;94152.50;;;24.34;56.22
35676;BME280;21790;42.668;23.298;2022-08-14T00:31:44;94151.19;;;24.20;56.32
35676;BME280;21790;42.668;23.298;2022-08-14T00:34:17;94151.19;;;24.20;56.25
35676;BME280;21790;42.668;23.298;2022-08-14T00:36:42;94154.59;;;24.18;56.16
35676;BME280;21790;42.668;23.298;2022-08-14T00:39:13;94151.19;;;24.35;56.25
35676;BME280;21790;42.668;23.298;2022-08-14T00:41:39;94151.22;;;24.27;56.42
35676;BME280;21790;42.668;23.298;2022-08-14T00:44:05;94151.56;;;24.31;56.43
35676;BME280;21790;42.668;23.298;2022-08-14T00:46:31;94146.50;;;24.30;56.40
35676;BME280;21790;42.668;23.298;2022-08-14T00:48:56;94149.31;;;24.30;56.38
35676;BME280;21790;42.668;23.298;2022-08-14T00:51:22;94139.53;;;24.38;56.15
35676;BME280;21790;42.668;23.298;2022-08-14T00:53:47;94135.00;;;24.35;56.80
35676;BME280;21790;42.668;23.298;2022-08-14T00:56:14;94137.06;;;24.42;56.08
35676;BME280;21790;42.668;23.298;2022-08-14T00:58:40;94132.94;;;24.43;55.73
35676;BME280;21790;42.668;23.298;2022-08-14T01:01:08;94131.78;;;24.54;55.73
35676;BME280;21790;42.668;23.298;2022-08-14T01:03:36;94132.19;;;24.35;56.24
35676;BME280;21790;42.668;23.298;2022-08-14T01:06:05;94123.13;;;24.29;56.71
35676;BME280;21790;42.668;23.298;2022-08-14T01:08:33;94131.25;;;24.33;56.29
35676;BME280;21790;42.668;23.298;2022-08-14T01:10:59;94126.34;;;24.26;56.87
35676;BME280;21790;42.668;23.298;2022-08-14T01:13:29;94116.56;;;24.19;57.14
35676;BME280;21790;42.668;23.298;2022-08-14T01:15:58;94122.22;;;24.19;57.28
35676;BME280;21790;42.668;23.298;2022-08-14T01:18:25;94109.03;;;24.22;57.27
35676;BME280;21790;42.668;23.298;2022-08-14T01:21:11;94113.19;;;24.21;56.59
35676;BME280;21790;42.668;23.298;2022-08-14T01:23:51;94106.94;;;24.22;56.89
35676;BME280;21790;42.668;23.298;2022-08-14T01:26:19;94104.31;;;24.24;56.51
35676;BME280;21790;42.668;23.298;2022-08-14T01:28:47;94101.13;;;24.20;56.85
35676;BME280;21790;42.668;23.298;2022-08-14T01:31:15;94102.06;;;24.30;56.48
35676;BME280;21790;42.668;23.298;2022-08-14T01:33:44;94106.03;;;24.27;56.69
35676;BME280;21790;42.668;23.298;2022-08-14T01:36:13;94111.47;;;24.25;56.38
35676;BME280;21790;42.668;23.298;2022-08-14T01:38:43;94111.69;;;24.27;56.06
35676;BME280;21790;42.668;23.298;2022-08-14T01:41:12;94113.56;;;24.25;57.07
35676;BME280;21790;42.668;23.298;2022-08-14T01:43:52;94114.31;;;24.25;56.95
35676;BME280;21790;42.668;23.298;2022-08-14T01:46:22;94115.63;;;24.24;57.28
35676;BME280;21790;42.668;23.298;2022-08-14T01:48:49;94106.78;;;24.20;57.41
35676;BME280;21790;42.668;23.298;2022-08-14T01:51:20;94106.59;;;24.26;57.29
35676;BME280;21790;42.668;23.298;2022-08-14T01:53:51;94101.88;;;24.28;57.26
35676;BME280;21790;42.668;23.298;2022-08-14T01:56:18;94106.41;;;24.24;57.12
35676;BME280;21790;42.668;23.298;2022-08-14T01:58:46;94097.00;;;24.21;57.12
35676;BME280;21790;42.668;23.298;2022-08-14T02:01:17;94100.56;;;24.29;57.04
35676;BME280;21790;42.668;23.298;2022-08-14T02:03:42;94102.22;;;24.17;57.13
35676;BME280;21790;42.668;23.298;2022-08-14T02:06:09;94107.16;;;24.24;57.05
35676;BME280;21790;42.668;23.298;2022-08-14T02:08:37;94104.13;;;24.30;57.06
35676;BME280;21790;42.668;23.298;2022-08-14T02:11:06;94107.50;;;24.36;56.62
35676;BME280;21790;42.668;23.298;2022-08-14T02:14:08;94104.88;;;24.38;56.53
35676;BME280;21790;42.668;23.298;2022-08-14T02:16:45;94100.00;;;24.38;56.67
35676;BME280;21790;42.668;23.298;2022-08-14T02:19:22;94108.25;;;24.44;56.16
35676;BME280;21790;42.668;23.298;2022-08-14T02:21:49;94103.56;;;24.16;56.57
35676;BME280;21790;42.668;23.298;2022-08-14T02:24:19;94090.78;;;24.30;56.34
35676;BME280;21790;42.668;23.298;2022-08-14T02:26:45;94086.06;;;24.25;56.02
35676;BME280;21790;42.668;23.298;2022-08-14T02:29:19;94096.41;;;24.30;56.34
35676;BME280;21790;42.668;23.298;2022-08-14T02:34:21;94087.75;;;24.36;56.04
35676;BME280;21790;42.668;23.298;2022-08-14T02:36:50;94091.53;;;24.31;55.89
35676;BME280;21790;42.668;23.298;2022-08-14T02:39:16;94086.63;;;24.24;55.97
35676;BME280;21790;42.668;23.298;2022-08-14T02:41:42;94090.94;;;24.17;56.26
35676;BME280;21790;42.668;23.298;2022-08-14T02:44:10;94099.63;;;24.19;56.60
35676;BME280;21790;42.668;23.298;2022-08-14T02:46:37;94095.47;;;24.12;56.89
35676;BME280;21790;42.668;23.298;2022-08-14T02:49:03;94102.06;;;24.15;56.53
35676;BME280;21790;42.668;23.298;2022-08-14T02:51:31;94090.19;;;24.16;56.29
35676;BME280;21790;42.668;23.298;2022-08-14T02:53:57;94102.22;;;24.17;56.21
35676;BME280;21790;42.668;23.298;2022-08-14T02:56:23;94098.09;;;24.10;56.51
35676;BME280;21790;42.668;23.298;2022-08-14T02:58:50;94089.84;;;24.05;56.44
35676;BME280;21790;42.668;23.298;2022-08-14T03:01:18;94094.72;;;24.04;56.58
35676;BME280;21790;42.668;23.298;2022-08-14T03:03:46;94095.09;;;24.08;56.59
35676;BME280;21790;42.668;23.298;2022-08-14T03:06:18;94091.16;;;24.19;56.17
35676;BME280;21790;42.668;23.298;2022-08-14T03:08:51;94088.69;;;24.00;56.42
35676;BME280;21790;42.668;23.298;2022-08-14T03:11:18;94104.13;;;24.07;56.38
35676;BME280;21790;42.668;23.298;2022-08-14T03:13:46;94098.09;;;24.10;56.29
35676;BME280;21790;42.668;23.298;2022-08-14T03:16:14;94093.97;;;24.19;56.16
35676;BME280;21790;42.668;23.298;2022-08-14T03:18:42;94092.66;;;24.20;55.91
35676;BME280;21790;42.668;23.298;2022-08-14T03:21:11;94087.75;;;24.13;56.01
35676;BME280;21790;42.668;23.298;2022-08-14T03:23:39;94087.00;;;24.05;56.26
35676;BME280;21790;42.668;23.298;2022-08-14T03:26:09;94093.94;;;24.11;56.12
35676;BME280;21790;42.668;23.298;2022-08-14T03:28:36;94094.13;;;24.13;55.79
35676;BME280;21790;42.668;23.298;2022-08-14T03:31:05;94099.22;;;24.15;56.15
35676;BME280;21790;42.668;23.298;2022-08-14T03:33:31;94104.50;;;24.11;56.15
35676;BME280;21790;42.668;23.298;2022-08-14T03:35:56;94102.41;;;24.11;56.23
35676;BME280;21790;42.668;23.298;2022-08-14T03:38:22;94097.16;;;24.08;56.28
35676;BME280;21790;42.668;23.298;2022-08-14T03:40:47;94108.44;;;24.08;56.58
35676;BME280;21790;42.668;23.298;2022-08-14T03:43:14;94109.78;;;24.14;56.30
35676;BME280;21790;42.668;23.298;2022-08-14T03:45:40;94103.75;;;24.03;56.24
35676;BME280;21790;42.668;23.298;2022-08-14T03:48:12;94109.59;;;24.20;56.00
35676;BME280;21790;42.668;23.298;2022-08-14T03:50:42;94109.22;;;24.16;56.10
35676;BME280;21790;42.668;23.298;2022-08-14T03:53:09;94118.81;;;24.05;56.33
35676;BME280;21790;42.668;23.298;2022-08-14T03:55:34;94109.94;;;24.01;56.50
35676;BME280;21790;42.668;23.298;2022-08-14T03:58:02;94107.31;;;24.03;56.50
35676;BME280;21790;42.668;23.298;2022-08-14T04:00:27;94098.50;;;23.99;56.32
35676;BME280;21790;42.668;23.298;2022-08-14T04:02:53;94108.25;;;24.13;55.73
35676;BME280;21790;42.668;23.298;2022-08-14T04:05:20;94108.66;;;24.17;55.78
35676;BME280;21790;42.668;23.298;2022-08-14T04:07:48;94113.91;;;24.13;55.95
35676;BME280;21790;42.668;23.298;2022-08-14T04:10:21;94115.81;;;24.11;55.89
35676;BME280;21790;42.668;23.298;2022-08-14T04:12:49;94122.19;;;24.11;55.81
35676;BME280;21790;42.668;23.298;2022-08-14T04:15:15;94120.47;;;24.01;55.80
35676;BME280;21790;42.668;23.298;2022-08-14T04:17:45;94119.53;;;24.06;55.94
35676;BME280;21790;42.668;23.298;2022-08-14T04:20:11;94122.56;;;24.00;56.03
35676;BME280;21790;42.668;23.298;2022-08-14T04:22:37;94123.88;;;23.92;56.20
35676;BME280;21790;42.668;23.298;2022-08-14T04:25:09;94124.44;;;23.98;55.81
35676;BME280;21790;42.668;23.298;2022-08-14T04:27:36;94119.16;;;24.02;55.88
35676;BME280;21790;42.668;23.298;2022-08-14T04:30:03;94119.94;;;24.02;55.52
35676;BME280;21790;42.668;23.298;2022-08-14T04:32:30;94112.97;;;24.03;55.27
35676;BME280;21790;42.668;23.298;2022-08-14T04:34:58;94122.75;;;23.87;55.66
35676;BME280;21790;42.668;23.298;2022-08-14T04:37:27;94128.94;;;23.70;56.25
35676;BME280;21790;42.668;23.298;2022-08-14T04:40:13;94131.16;;;23.57;56.69
35676;BME280;21790;42.668;23.298;2022-08-14T04:42:58;94131.47;;;23.38;57.10
35676;BME280;21790;42.668;23.298;2022-08-14T04:45:42;94117.84;;;23.14;57.54
35676;BME280;21790;42.668;23.298;2022-08-14T04:48:13;94119.44;;;23.38;57.36
35676;BME280;21790;42.668;23.298;2022-08-14T04:50:48;94125.03;;;23.22;57.37
35676;BME280;21790;42.668;23.298;2022-08-14T04:53:19;94128.19;;;23.11;57.68
35676;BME280;21790;42.668;23.298;2022-08-14T04:55:46;94119.00;;;23.18;57.56
35676;BME280;21790;42.668;23.298;2022-08-14T04:58:13;94119.44;;;23.38;57.29
35676;BME280;21790;42.668;23.298;2022-08-14T05:00:39;94117.59;;;23.48;56.55
35676;BME280;21790;42.668;23.298;2022-08-14T05:03:06;94110.50;;;23.62;56.51
35676;BME280;21790;42.668;23.298;2022-08-14T05:05:31;94114.25;;;23.64;57.01
35676;BME280;21790;42.668;23.298;2022-08-14T05:08:08;94107.50;;;23.83;56.57
35676;BME280;21790;42.668;23.298;2022-08-14T05:10:40;94103.19;;;23.82;56.77
35676;BME280;21790;42.668;23.298;2022-08-14T05:13:06;94102.59;;;23.91;56.55
35676;BME280;21790;42.668;23.298;2022-08-14T05:15:33;94111.09;;;23.98;56.61
35676;BME280;21790;42.668;23.298;2022-08-14T05:18:08;94113.91;;;24.13;55.86
35676;BME280;21790;42.668;23.298;2022-08-14T05:20:38;94107.13;;;24.09;55.95
35676;BME280;21790;42.668;23.298;2022-08-14T05:23:04;94117.66;;;24.08;56.15
35676;BME280;21790;42.668;23.298;2022-08-14T05:25:32;94113.16;;;24.13;56.06
35676;BME280;21790;42.668;23.298;2022-08-14T05:28:05;94121.28;;;24.32;56.09
35676;BME280;21790;42.668;23.298;2022-08-14T05:30:31;94112.03;;;24.16;56.16
35676;BME280;21790;42.668;23.298;2022-08-14T05:32:56;94115.41;;;24.22;55.98
35676;BME280;21790;42.668;23.298;2022-08-14T05:35:22;94106.03;;;24.27;56.05
35676;BME280;21790;42.668;23.298;2022-08-14T05:37:47;94114.13;;;24.31;55.72
35676;BME280;21790;42.668;23.298;2022-08-14T05:40:14;94116.38;;;24.32;56.12
35676;BME280;21790;42.668;23.298;2022-08-14T05:42:39;94112.78;;;24.39;55.89
35676;BME280;21790;42.668;23.298;2022-08-14T05:45:05;94116.91;;;24.46;55.56
35676;BME280;21790;42.668;23.298;2022-08-14T05:47:32;94113.88;;;24.51;55.48
35676;BME280;21790;42.668;23.298;2022-08-14T05:49:57;94114.44;;;24.50;55.75
35676;BME280;21790;42.668;23.298;2022-08-14T05:52:23;94120.84;;;24.50;55.79
35676;BME280;21790;42.668;23.298;2022-08-14T05:54:49;94108.25;;;24.51;55.61
35676;BME280;21790;42.668;23.298;2022-08-14T05:57:14;94109.00;;;24.44;55.97
35676;BME280;21790;42.668;23.298;2022-08-14T05:59:43;94106.56;;;24.48;55.73
35676;BME280;21790;42.668;23.298;2022-08-14T06:02:10;94109.75;;;24.52;55.19
35676;BME280;21790;42.668;23.298;2022-08-14T06:04:37;94109.19;;;24.39;55.77
35676;BME280;21790;42.668;23.298;2022-08-14T06:07:05;94116.34;;;24.47;55.96
35676;BME280;21790;42.668;23.298;2022-08-14T06:09:30;94120.28;;;24.44;55.58
35676;BME280;21790;42.668;23.298;2022-08-14T06:11:56;94111.47;;;24.40;55.92
35676;BME280;21790;42.668;23.298;2022-08-14T06:14:21;94120.09;;;24.50;55.11
35676;BME280;21790;42.668;23.298;2022-08-14T06:16:47;94119.94;;;24.48;55.16
35676;BME280;21790;42.668;23.298;2022-08-14T06:19:13;94120.13;;;24.42;55.64
35676;BME280;21790;42.668;23.298;2022-08-14T06:21:38;94120.69;;;24.48;55.73
35676;BME280;21790;42.668;23.298;2022-08-14T06:24:04;94118.22;;;24.52;55.15
35676;BME280;21790;42.668;23.298;2022-08-14T06:26:30;94120.28;;;24.52;55.05
35676;BME280;21790;42.668;23.298;2022-08-14T06:28:55;94126.34;;;24.48;55.70
35676;BME280;21790;42.668;23.298;2022-08-14T06:31:20;94127.47;;;24.45;55.45
35676;BME280;21790;42.668;23.298;2022-08-14T06:33:47;94130.63;;;24.49;55.54
35676;BME280;21790;42.668;23.298;2022-08-14T06:36:16;94127.47;;;24.38;56.11
35676;BME280;21790;42.668;23.298;2022-08-14T06:38:46;94127.84;;;24.04;55.56
35676;BME280;21790;42.668;23.298;2022-08-14T06:41:11;94128.97;;;24.16;55.45
35676;BME280;21790;42.668;23.298;2022-08-14T06:43:37;94136.13;;;24.25;55.02
35676;BME280;21790;42.668;23.298;2022-08-14T06:46:02;94132.38;;;24.37;54.15
35676;BME280;21790;42.668;23.298;2022-08-14T06:48:30;94128.25;;;24.38;54.24
35676;BME280;21790;42.668;23.298;2022-08-14T06:50:57;94133.84;;;24.53;54.08
35676;BME280;21790;42.668;23.298;2022-08-14T06:53:23;94132.00;;;24.48;54.00
35676;BME280;21790;42.668;23.298;2022-08-14T06:55:48;94132.34;;;24.52;54.23
35676;BME280;21790;42.668;23.298;2022-08-14T06:58:16;94139.50;;;24.53;54.60
35676;BME280;21790;42.668;23.298;2022-08-14T07:00:43;94138.75;;;24.45;54.60
35676;BME280;21790;42.668;23.298;2022-08-14T07:03:32;94131.63;;;24.29;55.56
35676;BME280;21790;42.668;23.298;2022-08-14T07:06:17;94130.09;;;24.28;54.60
35676;BME280;21790;42.668;23.298;2022-08-14T07:08:44;94142.13;;;24.44;54.22
35676;BME280;21790;42.668;23.298;2022-08-14T07:11:11;94153.81;;;24.40;53.97
35676;BME280;21790;42.668;23.298;2022-08-14T07:13:38;94139.91;;;24.42;54.23
35676;BME280;21790;42.668;23.298;2022-08-14T07:16:04;94142.88;;;24.44;54.17
35676;BME280;21790;42.668;23.298;2022-08-14T07:18:32;94147.78;;;24.51;54.19
35676;BME280;21790;42.668;23.298;2022-08-14T07:21:00;94150.97;;;24.55;53.98
35676;BME280;21790;42.668;23.298;2022-08-14T07:23:26;94150.81;;;24.46;54.03
35676;BME280;21790;42.668;23.298;2022-08-14T07:25:53;94141.75;;;24.63;53.49
35676;BME280;21790;42.668;23.298;2022-08-14T07:28:29;94139.47;;;24.76;53.46
35676;BME280;21790;42.668;23.298;2022-08-14T07:30:58;94142.09;;;24.74;52.96
35676;BME280;21790;42.668;23.298;2022-08-14T07:33:30;94145.47;;;24.73;53.27
35676;BME280;21790;42.668;23.298;2022-08-14T07:36:00;94150.94;;;24.78;52.73
35676;BME280;21790;42.668;23.298;2022-08-14T07:38:26;94154.53;;;24.79;52.69
35676;BME280;21790;42.668;23.298;2022-08-14T07:40:52;94146.97;;;24.89;52.38
35676;BME280;21790;42.668;23.298;2022-08-14T07:43:19;94143.78;;;24.92;52.67
35676;BME280;21790;42.668;23.298;2022-08-14T07:45:45;94153.94;;;24.95;52.52
35676;BME280;21790;42.668;23.298;2022-08-14T07:48:13;94153.94;;;25.03;52.47
35676;BME280;21790;42.668;23.298;2022-08-14T07:50:39;94153.53;;;24.99;52.33
35676;BME280;21790;42.668;23.298;2022-08-14T07:53:05;94153.75;;;25.01;52.26
35676;BME280;21790;42.668;23.298;2022-08-14T07:55:32;94152.78;;;25.06;52.36
35676;BME280;21790;42.668;23.298;2022-08-14T07:57:58;94150.13;;;25.08;52.44
35676;BME280;21790;42.668;23.298;2022-08-14T08:00:25;94152.59;;;25.04;52.14
35676;BME280;21790;42.668;23.298;2022-08-14T08:02:53;94156.72;;;25.11;52.14
35676;BME280;21790;42.668;23.298;2022-08-14T08:05:21;94150.09;;;25.16;51.67
35676;BME280;21790;42.668;23.298;2022-08-14T08:07:49;94151.97;;;25.21;51.87
35676;BME280;21790;42.668;23.298;2022-08-14T08:10:18;94152.91;;;25.23;51.69
35676;BME280;21790;42.668;23.298;2022-08-14T08:15:23;94147.59;;;25.27;51.38
35676;BME280;21790;42.668;23.298;2022-08-14T08:17:49;94153.09;;;25.25;51.32
35676;BME280;21790;42.668;23.298;2022-08-14T08:22:42;94143.53;;;25.13;51.60
35676;BME280;21790;42.668;23.298;2022-08-14T08:25:08;94148.84;;;25.02;51.04
35676;BME280;21790;42.668;23.298;2022-08-14T08:27:34;94142.06;;;24.97;51.37
35676;BME280;21790;42.668;23.298;2022-08-14T08:30:07;94134.91;;;25.04;51.64
35676;BME280;21790;42.668;23.298;2022-08-14T08:32:39;94141.63;;;25.16;50.77
35676;BME280;21790;42.668;23.298;2022-08-14T08:35:15;94148.78;;;25.17;50.93
35676;BME280;21790;42.668;23.298;2022-08-14T08:37:48;94148.22;;;25.18;50.85
35676;BME280;21790;42.668;23.298;2022-08-14T08:40:21;94147.28;;;25.16;51.33
35676;BME280;21790;42.668;23.298;2022-08-14T08:42:47;94145.63;;;25.05;51.28
35676;BME280;21790;42.668;23.298;2022-08-14T08:45:16;94147.66;;;25.20;51.65
35676;BME280;21790;42.668;23.298;2022-08-14T08:47:42;94144.84;;;25.12;51.77
35676;BME280;21790;42.668;23.298;2022-08-14T08:50:38;94152.47;;;25.34;51.56
35676;BME280;21790;42.668;23.298;2022-08-14T08:53:08;94138.91;;;25.33;51.79
35676;BME280;21790;42.668;23.298;2022-08-14T08:55:38;94140.59;;;25.36;51.71
35676;BME280;21790;42.668;23.298;2022-08-14T08:58:15;94135.31;;;25.40;51.08
35676;BME280;21790;42.668;23.298;2022-08-14T09:00:41;94136.13;;;25.25;51.72
35676;BME280;21790;42.668;23.298;2022-08-14T09:03:12;94137.41;;;25.32;51.96
35676;BME280;21790;42.668;23.298;2022-08-14T09:06:01;94126.72;;;25.55;51.33
35676;BME280;21790;42.668;23.298;2022-08-14T09:08:33;94120.53;;;25.57;51.65
35676;BME280;21790;42.668;23.298;2022-08-14T09:11:07;94118.53;;;25.74;51.34
35676;BME280;21790;42.668;23.298;2022-08-14T09:13:36;94116.94;;;25.56;49.58
35676;BME280;21790;42.668;23.298;2022-08-14T09:16:02;94119.50;;;25.69;49.67
35676;BME280;21790;42.668;23.298;2022-08-14T09:18:27;94120.63;;;25.74;49.92
35676;BME280;21790;42.668;23.298;2022-08-14T09:20:55;94116.81;;;25.79;50.39
35676;BME280;21790;42.668;23.298;2022-08-14T09:23:20;94117.72;;;25.81;50.09
35676;BME280;21790;42.668;23.298;2022-08-14T09:25:47;94107.91;;;25.82;50.09
35676;BME280;21790;42.668;23.298;2022-08-14T09:28:15;94116.94;;;25.89;50.13
35676;BME280;21790;42.668;23.298;2022-08-14T09:30:51;94117.88;;;25.91;50.21
35676;BME280;21790;42.668;23.298;2022-08-14T09:38:57;94123.22;;;26.04;49.76
35676;BME280;21790;42.668;23.298;2022-08-14T09:41:49;94121.47;;;26.09;49.62
35676;BME280;21790;42.668;23.298;2022-08-14T09:46:58;94107.03;;;26.22;49.03
35676;BME280;21790;42.668;23.298;2022-08-14T09:49:35;94114.78;;;26.21;48.71
35676;BME280;21790;42.668;23.298;2022-08-14T09:52:09;94121.03;;;26.20;48.92
35676;BME280;21790;42.668;23.298;2022-08-14T09:54:43;94117.22;;;26.25;49.62
35676;BME280;21790;42.668;23.298;2022-08-14T09:57:11;94117.28;;;26.17;49.73
35676;BME280;21790;42.668;23.298;2022-08-14T09:59:48;94110.25;;;26.18;50.28
35676;BME280;21790;42.668;23.298;2022-08-14T10:02:25;94105.66;;;26.31;49.83
35676;BME280;21790;42.668;23.298;2022-08-14T10:05:31;94109.59;;;26.35;49.76
35676;BME280;21790;42.668;23.298;2022-08-14T10:07:58;94111.09;;;26.11;49.76
35676;BME280;21790;42.668;23.298;2022-08-14T10:10:38;94110.00;;;26.32;49.21
35676;BME280;21790;42.668;23.298;2022-08-14T10:13:24;94116.25;;;26.30;49.67
35676;BME280;21790;42.668;23.298;2022-08-14T10:15:50;94114.53;;;26.02;49.97
35676;BME280;21790;42.668;23.298;2022-08-14T10:18:18;94113.34;;;26.13;49.69
35676;BME280;21790;42.668;23.298;2022-08-14T10:20:59;94118.75;;;26.18;49.57
35676;BME280;21790;42.668;23.298;2022-08-14T10:23:45;94116.88;;;26.21;49.46
35676;BME280;21790;42.668;23.298;2022-08-14T10:26:36;94110.75;;;26.07;48.50
35676;BME280;21790;42.668;23.298;2022-08-14T10:29:07;94109.81;;;26.30;47.73
35676;BME280;21790;42.668;23.298;2022-08-14T10:31:42;94106.50;;;26.41;47.52
35676;BME280;21790;42.668;23.298;2022-08-14T10:34:32;94097.00;;;26.46;48.34
35676;BME280;21790;42.668;23.298;2022-08-14T10:37:04;94101.84;;;26.36;48.80
35676;BME280;21790;42.668;23.298;2022-08-14T10:39:58;94098.38;;;26.45;48.53
35676;BME280;21790;42.668;23.298;2022-08-14T10:42:39;94096.59;;;26.32;47.50
35676;BME280;21790;42.668;23.298;2022-08-14T10:45:33;94091.69;;;26.33;47.75
35676;BME280;21790;42.668;23.298;2022-08-14T10:48:13;94076.34;;;26.36;48.51
35676;BME280;21790;42.668;23.298;2022-08-14T10:50:41;94077.69;;;26.10;48.58
35676;BME280;21790;42.668;23.298;2022-08-14T10:53:13;94076.75;;;26.32;48.08
35676;BME280;21790;42.668;23.298;2022-08-14T10:55:45;94071.38;;;26.44;47.96
35676;BME280;21790;42.668;23.298;2022-08-14T10:58:11;94070.41;;;26.24;48.48
35676;BME280;21790;42.668;23.298;2022-08-14T11:00:57;94065.19;;;26.38;48.50
35676;BME280;21790;42.668;23.298;2022-08-14T11:03:37;94053.69;;;26.36;48.18
35676;BME280;21790;42.668;23.298;2022-08-14T11:06:15;94060.09;;;26.36;47.65
35676;BME280;21790;42.668;23.298;2022-08-14T11:08:44;94054.63;;;26.13;48.69
35676;BME280;21790;42.668;23.298;2022-08-14T11:11:12;94053.22;;;26.22;47.87
35676;BME280;21790;42.668;23.298;2022-08-14T11:13:41;94045.34;;;26.38;48.27
35676;BME280;21790;42.668;23.298;2022-08-14T11:16:09;94041.53;;;26.43;48.07
35676;BME280;21790;42.668;23.298;2022-08-14T11:18:35;94043.28;;;26.38;48.28
35676;BME280;21790;42.668;23.298;2022-08-14T11:21:02;94036.94;;;26.47;47.25
35676;BME280;21790;42.668;23.298;2022-08-14T11:23:32;94035.75;;;26.85;47.28
35676;BME280;21790;42.668;23.298;2022-08-14T11:26:06;94032.84;;;27.10;46.16
35676;BME280;21790;42.668;23.298;2022-08-14T11:28:33;94031.50;;;27.11;45.65
35676;BME280;21790;42.668;23.298;2022-08-14T11:31:04;94032.31;;;27.21;45.01
35676;BME280;21790;42.668;23.298;2022-08-14T11:33:30;94036.81;;;27.24;45.18
35676;BME280;21790;42.668;23.298;2022-08-14T11:36:05;94038.78;;;27.31;45.22
35676;BME280;21790;42.668;23.298;2022-08-14T11:38:41;94042.44;;;27.41;45.56
35676;BME280;21790;42.668;23.298;2022-08-14T11:41:11;94043.13;;;27.32;44.50
35676;BME280;21790;42.668;23.298;2022-08-14T11:43:40;94048.63;;;27.30;46.24
35676;BME280;21790;42.668;23.298;2022-08-14T11:46:06;94053.81;;;27.24;45.35
35676;BME280;21790;42.668;23.298;2022-08-14T11:48:46;94049.38;;;26.69;46.23
35676;BME280;21790;42.668;23.298;2022-08-14T11:51:22;94049.13;;;26.75;46.44
35676;BME280;21790;42.668;23.298;2022-08-14T11:53:53;94043.38;;;26.48;46.77
35676;BME280;21790;42.668;23.298;2022-08-14T11:56:20;94049.53;;;26.71;45.97
35676;BME280;21790;42.668;23.298;2022-08-14T11:58:50;94040.28;;;26.71;46.15
35676;BME280;21790;42.668;23.298;2022-08-14T12:01:24;94041.19;;;26.73;45.84
35676;BME280;21790;42.668;23.298;2022-08-14T12:03:53;94036.34;;;26.32;46.59
35676;BME280;21790;42.668;23.298;2022-08-14T12:06:24;94038.00;;;25.93;47.27
35676;BME280;21790;42.668;23.298;2022-08-14T12:08:51;94042.97;;;25.60;47.99
35676;BME280;21790;42.668;23.298;2022-08-14T12:11:19;94041.91;;;25.97;47.17
35676;BME280;21790;42.668;23.298;2022-08-14T12:13:46;94037.84;;;25.66;48.09
35676;BME280;21790;42.668;23.298;2022-08-14T12:16:13;94043.00;;;25.85;48.38
35676;BME280;21790;42.668;23.298;2022-08-14T12:18:45;94034.50;;;25.85;48.22
35676;BME280;21790;42.668;23.298;2022-08-14T12:23:46;94031.03;;;25.69;48.69
35676;BME280;21790;42.668;23.298;2022-08-14T12:26:17;94022.63;;;25.54;48.79
35676;BME280;21790;42.668;23.298;2022-08-14T12:28:48;94023.28;;;25.37;49.56
35676;BME280;21790;42.668;23.298;2022-08-14T12:31:19;94016.19;;;25.53;49.37
35676;BME280;21790;42.668;23.298;2022-08-14T12:33:58;94014.88;;;25.29;49.76
35676;BME280;21790;42.668;23.298;2022-08-14T12:36:25;94019.84;;;25.46;48.93
35676;BME280;21790;42.668;23.298;2022-08-14T12:38:56;94016.13;;;25.68;48.80
35676;BME280;21790;42.668;23.298;2022-08-14T12:41:23;94013.78;;;25.50;49.26
35676;BME280;21790;42.668;23.298;2022-08-14T12:44:02;94017.03;;;25.46;50.30
35676;BME280;21790;42.668;23.298;2022-08-14T12:46:39;94019.03;;;25.53;49.78
35676;BME280;21790;42.668;23.298;2022-08-14T12:49:14;94014.44;;;25.40;49.83
35676;BME280;21790;42.668;23.298;2022-08-14T12:51:42;94016.28;;;25.46;49.92
35676;BME280;21790;42.668;23.298;2022-08-14T12:54:17;94017.13;;;25.31;50.53
35676;BME280;21790;42.668;23.298;2022-08-14T12:56:43;94016.53;;;25.32;50.19
35676;BME280;21790;42.668;23.298;2022-08-14T12:59:10;94010.88;;;25.32;51.00
35676;BME280;21790;42.668;23.298;2022-08-14T13:01:36;94005.34;;;25.42;51.26
35676;BME280;21790;42.668;23.298;2022-08-14T13:04:08;94002.22;;;25.63;50.43
35676;BME280;21790;42.668;23.298;2022-08-14T13:06:35;94001.56;;;25.72;50.16
35676;BME280;21790;42.668;23.298;2022-08-14T13:09:03;94004.44;;;25.89;50.07
35676;BME280;21790;42.668;23.298;2022-08-14T13:11:51;94003.47;;;25.94;49.51
35676;BME280;21790;42.668;23.298;2022-08-14T13:14:27;93992.66;;;25.75;49.78
35676;BME280;21790;42.668;23.298;2022-08-14T13:16:58;93991.44;;;25.86;49.56
35676;BME280;21790;42.668;23.298;2022-08-14T13:19:27;93980.19;;;25.78;49.71
35676;BME280;21790;42.668;23.298;2022-08-14T13:21:54;93986.66;;;25.71;50.35